Terminal Aerodrome Forecast
Issued by NWS La Crosse, WI

Home | Current Version | Previous Version | Text Only | Print | Product List | Glossary On
Versions: 1 2 3 4 5 6 7 8 9 10 11 12 13 14 15 16 17 18 19 20 21
000
FTUS43 KARX 250520
TAFRST
TAF
KRST 250520Z 2506/2606 30006KT P6SM SCT080
     FM250700 28006KT 2SM BR SKC
     FM250900 28006KT 1SM BR SCT002
      TEMPO 2509/2512 1/2SM FG BKN002
     FM251330 28008KT 3SM BR SCT006
     FM251400 28010KT P6SM SCT020
     FM251700 29016G24KT P6SM SCT150
     FM260000 34009KT P6SM SCT150=

USA.gov is the U.S. government's official web portal to all federal, state and local government web resources and services.